Time;durP1;ratioP1;P1;durP2;ratioP2;P2;SDS_P1;SDS_P2;PMS_P1;PMS_P2;Temp;Humidity;BMP_temperature;BMP_pressure;BME280_temperature;BME280_humidity;BME280_pressure;Samples;Min_cycle;Max_cycle;Signal;HPM_P1;HPM_P2
2022/09/12 00:00:34;;;;;;;34.53;27.33;;;;;;;;;;5078811;27;89411;-69
2022/09/12 00:03:00;;;;;;;35.72;29.67;;;;;;;;;;5079179;27;90707;-70
2022/09/12 00:05:27;;;;;;;32.67;29.17;;;;;;;;;;5078967;27;89977;-70
2022/09/12 00:07:53;;;;;;;31.48;27.98;;;;;;;;;;5078613;27;89059;-70
2022/09/12 00:10:19;;;;;;;31.52;27.85;;;;;;;;;;5081746;27;89961;-69
2022/09/12 00:12:46;;;;;;;36.45;31.27;;;;;;;;;;5078233;27;89050;-69
2022/09/12 00:15:12;;;;;;;39.75;30.77;;;;;;;;;;5078258;27;89819;-69
2022/09/12 00:17:39;;;;;;;37.58;30.90;;;;;;;;;;5078660;27;91095;-70
2022/09/12 00:20:07;;;;;;;34.40;30.65;;;;;;;;;;5079002;27;89675;-70
2022/09/12 00:22:34;;;;;;;35.53;31.75;;;;;;;;;;5077586;27;89902;-69
2022/09/12 00:25:00;;;;;;;35.30;31.60;;;;;;;;;;5077743;27;89748;-69
2022/09/12 00:27:27;;;;;;;38.72;30.83;;;;;;;;;;5078600;27;89535;-69
2022/09/12 00:29:53;;;;;;;38.08;32.90;;;;;;;;;;5078559;27;91127;-70
2022/09/12 00:32:20;;;;;;;40.25;32.72;;;;;;;;;;5085009;27;90073;-69
2022/09/12 00:34:46;;;;;;;40.47;31.98;;;;;;;;;;5097799;27;90131;-69
2022/09/12 00:37:13;;;;;;;37.28;32.75;;;;;;;;;;5098935;27;89475;-70
2022/09/12 00:39:39;;;;;;;40.70;31.33;;;;;;;;;;5098049;27;89595;-69
2022/09/12 00:42:05;;;;;;;40.17;32.25;;;;;;;;;;5097737;27;90117;-69
2022/09/12 00:44:34;;;;;;;38.53;31.25;;;;;;;;;;5099190;27;89388;-69
2022/09/12 00:47:04;;;;;;;36.92;29.58;;;;;;;;;;5098973;27;89891;-69
2022/09/12 00:49:44;;;;;;;33.05;29.10;;;;;;;;;;5086808;27;92483;-69
2022/09/12 00:52:12;;;;;;;39.72;29.75;;;;;;;;;;5077400;27;90090;-69
2022/09/12 00:55:01;;;;;;;39.90;31.45;;;;;;;;;;5081258;27;89826;-70
2022/09/12 00:57:40;;;;;;;34.45;29.20;;;;;;;;;;5066716;27;89064;-69
2022/09/12 01:00:12;;;;;;;40.75;30.98;;;;;;;;;;5078350;27;89505;-69
2022/09/12 01:02:38;;;;;;;36.70;29.70;;;;;;;;;;5077498;27;90709;-69
2022/09/12 01:05:05;;;;;;;36.42;29.58;;;;;;;;;;5077525;27;89358;-70
2022/09/12 01:07:34;;;;;;;33.22;28.85;;;;;;;;;;5078801;27;89911;-69
2022/09/12 01:10:06;;;;;;;31.60;27.58;;;;;;;;;;5077053;27;89909;-69
2022/09/12 01:12:33;;;;;;;32.22;26.83;;;;;;;;;;5077518;27;89434;-69
2022/09/12 01:14:59;;;;;;;34.60;27.38;;;;;;;;;;5077185;27;89074;-69
2022/09/12 01:17:31;;;;;;;33.97;27.80;;;;;;;;;;5079294;27;92305;-69
2022/09/12 01:20:01;;;;;;;39.08;29.10;;;;;;;;;;5078119;27;89025;-69
2022/09/12 01:22:45;;;;;;;31.33;27.60;;;;;;;;;;5079367;27;90113;-69
2022/09/12 01:25:13;;;;;;;35.53;28.20;;;;;;;;;;5097220;27;89800;-69
2022/09/12 01:28:02;;;;;;;35.40;27.52;;;;;;;;;;5098471;27;89585;-69
2022/09/12 01:30:29;;;;;;;28.95;25.70;;;;;;;;;;5059010;27;91001;-69
2022/09/12 01:33:13;;;;;;;31.10;25.23;;;;;;;;;;5089222;27;89993;-69
2022/09/12 01:35:44;;;;;;;29.35;24.90;;;;;;;;;;5077898;27;89662;-70
2022/09/12 01:38:17;;;;;;;32.97;25.98;;;;;;;;;;5077245;27;90989;-69
2022/09/12 01:41:00;;;;;;;32.72;25.35;;;;;;;;;;5081024;27;90469;-69
2022/09/12 01:43:35;;;;;;;30.92;27.25;;;;;;;;;;5077227;27;89915;-70
2022/09/12 01:46:04;;;;;;;33.75;28.33;;;;;;;;;;5076525;27;89371;-69
2022/09/12 01:48:34;;;;;;;34.30;26.58;;;;;;;;;;5077535;27;89214;-70
2022/09/12 01:51:15;;;;;;;36.95;25.83;;;;;;;;;;5077042;27;89613;-70
2022/09/12 01:53:44;;;;;;;31.92;25.30;;;;;;;;;;5076042;27;89721;-69
2022/09/12 01:56:21;;;;;;;32.05;25.88;;;;;;;;;;5077686;27;90606;-70
2022/09/12 01:58:56;;;;;;;36.53;25.83;;;;;;;;;;5076805;27;89908;-69
2022/09/12 02:01:30;;;;;;;28.20;24.05;;;;;;;;;;5080779;27;89231;-69
2022/09/12 02:04:10;;;;;;;30.33;24.55;;;;;;;;;;5076947;27;90103;-69
2022/09/12 02:06:46;;;;;;;26.60;23.73;;;;;;;;;;5076348;27;89079;-69
2022/09/12 02:09:24;;;;;;;25.98;23.13;;;;;;;;;;5077692;27;89747;-69
2022/09/12 02:11:52;;;;;;;30.90;23.63;;;;;;;;;;5077100;27;90934;-69
2022/09/12 02:14:21;;;;;;;35.17;27.35;;;;;;;;;;5076856;27;89263;-69
2022/09/12 02:16:50;;;;;;;37.05;28.08;;;;;;;;;;5075963;27;88967;-69
2022/09/12 02:19:18;;;;;;;35.97;28.85;;;;;;;;;;5076836;27;90175;-69
2022/09/12 02:21:49;;;;;;;33.28;27.92;;;;;;;;;;5075146;27;89692;-70
2022/09/12 02:24:16;;;;;;;34.17;29.23;;;;;;;;;;5079957;27;89115;-70
2022/09/12 02:26:46;;;;;;;38.78;28.38;;;;;;;;;;5076393;27;89386;-69
2022/09/12 02:29:13;;;;;;;36.63;30.02;;;;;;;;;;5077598;27;89845;-70
2022/09/12 02:31:43;;;;;;;40.10;30.65;;;;;;;;;;5088758;27;91078;-70
2022/09/12 02:34:27;;;;;;;42.17;28.20;;;;;;;;;;5078658;27;90317;-70
2022/09/12 02:37:00;;;;;;;34.10;27.95;;;;;;;;;;5076181;27;89047;-70
2022/09/12 02:39:26;;;;;;;41.33;31.83;;;;;;;;;;5076597;27;90034;-70
2022/09/12 02:41:57;;;;;;;46.63;34.38;;;;;;;;;;5075261;27;89207;-70
2022/09/12 02:44:25;;;;;;;43.90;34.38;;;;;;;;;;5076948;27;89995;-69
2022/09/12 02:46:58;;;;;;;50.45;35.40;;;;;;;;;;5078806;27;90015;-70
2022/09/12 02:49:24;;;;;;;45.03;33.75;;;;;;;;;;5075741;27;89082;-70
2022/09/12 02:51:50;;;;;;;55.17;36.47;;;;;;;;;;5076724;27;89628;-70
2022/09/12 02:54:18;;;;;;;54.90;39.00;;;;;;;;;;5076957;27;90382;-69
2022/09/12 02:56:44;;;;;;;48.25;36.55;;;;;;;;;;5075827;27;89762;-69
2022/09/12 02:59:13;;;;;;;54.97;36.55;;;;;;;;;;5076522;27;90880;-70
2022/09/12 03:01:48;;;;;;;51.55;37.58;;;;;;;;;;5075868;27;89513;-69
2022/09/12 03:04:33;;;;;;;49.15;37.28;;;;;;;;;;5075582;27;88911;-69
2022/09/12 03:07:02;;;;;;;57.78;39.85;;;;;;;;;;5076226;27;90326;-70
2022/09/12 03:09:28;;;;;;;46.05;36.60;;;;;;;;;;5078572;27;89359;-69
2022/09/12 03:12:02;;;;;;;47.20;35.08;;;;;;;;;;5076033;27;91173;-69
2022/09/12 03:14:35;;;;;;;60.55;37.80;;;;;;;;;;5078179;27;90470;-69
2022/09/12 03:17:08;;;;;;;45.05;36.03;;;;;;;;;;5077949;27;93395;-69
2022/09/12 03:19:43;;;;;;;48.15;36.97;;;;;;;;;;5079329;27;90140;-69
2022/09/12 03:22:13;;;;;;;53.22;37.58;;;;;;;;;;5079891;27;89170;-70
2022/09/12 03:24:47;;;;;;;53.97;36.40;;;;;;;;;;5078392;27;89073;-69
2022/09/12 03:27:32;;;;;;;45.80;35.45;;;;;;;;;;5079407;27;88993;-69
2022/09/12 03:29:58;;;;;;;48.67;35.45;;;;;;;;;;5079315;27;90142;-69
2022/09/12 03:32:44;;;;;;;48.55;35.97;;;;;;;;;;5084488;27;89479;-69
2022/09/12 03:35:11;;;;;;;48.58;37.33;;;;;;;;;;5099931;27;89550;-69
2022/09/12 03:37:38;;;;;;;46.22;34.78;;;;;;;;;;5098383;27;89017;-69
2022/09/12 03:40:05;;;;;;;42.60;33.45;;;;;;;;;;5083901;27;89841;-69
2022/09/12 03:42:31;;;;;;;48.65;36.25;;;;;;;;;;5079452;27;89635;-70
2022/09/12 03:44:58;;;;;;;51.50;36.42;;;;;;;;;;5078388;27;91018;-69
2022/09/12 03:47:24;;;;;;;43.20;33.83;;;;;;;;;;5079755;27;91022;-70
2022/09/12 03:49:51;;;;;;;50.85;34.42;;;;;;;;;;5078780;27;90539;-69
2022/09/12 03:52:18;;;;;;;43.17;35.35;;;;;;;;;;5078261;27;88986;-69
2022/09/12 03:54:44;;;;;;;45.95;35.03;;;;;;;;;;5082059;27;89014;-70
2022/09/12 03:57:10;;;;;;;51.05;35.33;;;;;;;;;;5079469;27;89022;-69
2022/09/12 03:59:36;;;;;;;48.80;35.30;;;;;;;;;;5078325;27;90900;-69
2022/09/12 04:02:03;;;;;;;45.85;34.50;;;;;;;;;;5078367;27;89609;-69
2022/09/12 04:04:30;;;;;;;48.03;35.88;;;;;;;;;;5078773;27;89046;-70
2022/09/12 04:06:56;;;;;;;51.08;36.92;;;;;;;;;;5077662;27;90078;-69
2022/09/12 04:09:23;;;;;;;50.22;36.58;;;;;;;;;;5079452;27;90129;-69
2022/09/12 04:11:49;;;;;;;58.33;38.42;;;;;;;;;;5078014;27;89738;-70
2022/09/12 04:14:15;;;;;;;55.20;39.00;;;;;;;;;;5081862;27;90711;-69
2022/09/12 04:16:42;;;;;;;50.70;37.50;;;;;;;;;;5078666;27;88817;-70
2022/09/12 04:19:10;;;;;;;58.25;37.42;;;;;;;;;;5079494;27;90743;-69
2022/09/12 04:21:36;;;;;;;54.92;37.53;;;;;;;;;;5077384;27;89412;-70
2022/09/12 04:24:02;;;;;;;53.05;37.70;;;;;;;;;;5079000;27;89115;-70
2022/09/12 04:26:30;;;;;;;60.42;39.83;;;;;;;;;;5078504;27;90764;-70
2022/09/12 04:28:56;;;;;;;51.47;36.78;;;;;;;;;;5077860;27;90551;-69
2022/09/12 04:31:23;;;;;;;54.72;38.50;;;;;;;;;;5079678;27;89770;-70
2022/09/12 04:33:53;;;;;;;66.15;41.38;;;;;;;;;;5093046;27;90775;-70
2022/09/12 04:36:21;;;;;;;60.45;39.97;;;;;;;;;;5102571;27;90201;-70
2022/09/12 04:38:48;;;;;;;66.10;42.38;;;;;;;;;;5099271;27;90813;-70
2022/09/12 04:41:14;;;;;;;57.53;41.67;;;;;;;;;;5098256;27;90487;-69
2022/09/12 04:43:41;;;;;;;60.20;41.20;;;;;;;;;;5099357;27;89169;-69
2022/09/12 04:46:08;;;;;;;64.00;40.38;;;;;;;;;;5099378;27;90706;-69
2022/09/12 04:48:35;;;;;;;59.60;40.83;;;;;;;;;;5097725;27;90885;-69
2022/09/12 04:51:12;;;;;;;60.22;40.58;;;;;;;;;;5098666;27;91578;-69
2022/09/12 04:53:38;;;;;;;59.33;38.50;;;;;;;;;;5098789;27;91028;-70
2022/09/12 04:56:06;;;;;;;64.22;41.03;;;;;;;;;;5097557;27;89546;-70
2022/09/12 04:58:33;;;;;;;56.55;38.13;;;;;;;;;;5102316;27;88840;-70
2022/09/12 05:01:18;;;;;;;53.35;36.55;;;;;;;;;;5098782;27;90313;-70
2022/09/12 05:03:45;;;;;;;57.45;37.28;;;;;;;;;;5097032;27;89787;-71
2022/09/12 05:06:13;;;;;;;55.05;38.17;;;;;;;;;;5098131;27;88954;-70
2022/09/12 05:08:39;;;;;;;53.38;38.45;;;;;;;;;;5098942;27;90302;-70
2022/09/12 05:11:07;;;;;;;56.75;36.15;;;;;;;;;;5084620;27;89641;-70
2022/09/12 05:13:33;;;;;;;53.00;37.50;;;;;;;;;;5078264;27;89623;-70
2022/09/12 05:16:00;;;;;;;52.33;38.38;;;;;;;;;;5075728;27;90469;-70
2022/09/12 05:18:26;;;;;;;68.10;37.25;;;;;;;;;;5078049;27;89632;-69
2022/09/12 05:20:53;;;;;;;48.33;35.70;;;;;;;;;;5081147;27;91057;-70
2022/09/12 05:23:20;;;;;;;56.53;37.53;;;;;;;;;;5074481;27;89406;-70
2022/09/12 05:25:50;;;;;;;50.40;36.72;;;;;;;;;;5075051;27;90225;-69
2022/09/12 05:28:17;;;;;;;50.95;34.92;;;;;;;;;;5077088;27;89300;-70
2022/09/12 05:30:43;;;;;;;46.97;33.13;;;;;;;;;;5077065;27;89579;-70
2022/09/12 05:33:10;;;;;;;48.80;35.22;;;;;;;;;;5088814;27;91107;-70
2022/09/12 05:35:39;;;;;;;49.92;35.05;;;;;;;;;;5076991;27;91948;-70
2022/09/12 05:38:06;;;;;;;55.92;36.15;;;;;;;;;;5074271;27;90029;-70
2022/09/12 05:40:33;;;;;;;53.15;36.70;;;;;;;;;;5091236;27;89739;-70
2022/09/12 05:42:59;;;;;;;47.42;34.60;;;;;;;;;;5081960;27;89851;-70
2022/09/12 05:45:26;;;;;;;51.45;36.15;;;;;;;;;;5076355;27;89774;-70
2022/09/12 05:47:55;;;;;;;56.15;36.85;;;;;;;;;;5079105;27;89467;-70
2022/09/12 05:50:21;;;;;;;61.70;39.25;;;;;;;;;;5076343;27;89784;-70
2022/09/12 05:52:48;;;;;;;51.40;36.03;;;;;;;;;;5079297;27;89941;-70
2022/09/12 05:55:15;;;;;;;56.00;39.83;;;;;;;;;;5082079;27;90206;-70
2022/09/12 05:57:45;;;;;;;64.28;40.55;;;;;;;;;;5075553;27;89035;-70
2022/09/12 06:00:12;;;;;;;60.22;39.75;;;;;;;;;;5075408;27;90770;-70
2022/09/12 06:02:38;;;;;;;59.85;38.95;;;;;;;;;;5079632;27;89321;-70
2022/09/12 06:05:05;;;;;;;61.60;40.20;;;;;;;;;;5085991;27;89555;-70
2022/09/12 06:07:31;;;;;;;61.33;40.15;;;;;;;;;;5088103;27;90749;-70
2022/09/12 06:09:58;;;;;;;60.17;40.63;;;;;;;;;;5095093;27;89065;-70
2022/09/12 06:12:25;;;;;;;58.05;38.58;;;;;;;;;;5090029;27;90871;-70
2022/09/12 06:14:52;;;;;;;62.90;40.05;;;;;;;;;;5080585;27;89894;-70
2022/09/12 06:17:19;;;;;;;59.58;40.35;;;;;;;;;;5088566;27;90761;-70
2022/09/12 06:19:45;;;;;;;59.03;40.08;;;;;;;;;;5076392;27;90092;-70
2022/09/12 06:22:12;;;;;;;60.42;39.70;;;;;;;;;;5078306;27;91736;-70
2022/09/12 06:24:39;;;;;;;61.25;41.42;;;;;;;;;;5082825;27;90274;-70
2022/09/12 06:27:05;;;;;;;59.95;40.60;;;;;;;;;;5077821;27;90343;-70
2022/09/12 06:29:31;;;;;;;63.22;41.83;;;;;;;;;;5078077;27;90451;-70
2022/09/12 06:31:57;;;;;;;75.00;41.97;;;;;;;;;;5097693;27;90555;-70
2022/09/12 06:34:25;;;;;;;65.43;43.10;;;;;;;;;;5096809;27;90266;-70
2022/09/12 06:36:52;;;;;;;63.08;41.70;;;;;;;;;;5097483;27;89706;-70
2022/09/12 06:39:19;;;;;;;70.68;44.55;;;;;;;;;;5097708;27;90717;-70
2022/09/12 06:41:47;;;;;;;66.10;41.70;;;;;;;;;;5095850;27;89402;-70
2022/09/12 06:44:15;;;;;;;73.07;45.13;;;;;;;;;;5096976;27;89122;-70
2022/09/12 06:46:41;;;;;;;75.22;42.97;;;;;;;;;;5099951;27;90085;-70
2022/09/12 06:49:08;;;;;;;65.28;42.20;;;;;;;;;;5097114;27;89167;-70
2022/09/12 06:51:37;;;;;;;72.90;42.65;;;;;;;;;;5100641;27;89894;-70
2022/09/12 06:54:04;;;;;;;65.70;42.95;;;;;;;;;;5100079;27;89546;-70
2022/09/12 06:56:30;;;;;;;69.60;42.85;;;;;;;;;;5099398;27;89445;-70
2022/09/12 06:58:57;;;;;;;63.03;40.35;;;;;;;;;;5100660;27;91220;-70
2022/09/12 07:01:28;;;;;;;66.13;40.90;;;;;;;;;;5100167;27;90119;-71
2022/09/12 07:03:56;;;;;;;61.50;41.85;;;;;;;;;;5100162;27;88859;-70
2022/09/12 07:06:23;;;;;;;61.42;41.08;;;;;;;;;;5100036;27;89785;-71
2022/09/12 07:08:49;;;;;;;62.83;40.65;;;;;;;;;;5102787;27;90078;-70
2022/09/12 07:11:17;;;;;;;55.42;39.90;;;;;;;;;;5100747;27;90092;-70
2022/09/12 07:13:45;;;;;;;63.28;43.53;;;;;;;;;;5100091;27;89567;-70
2022/09/12 07:16:11;;;;;;;64.43;43.08;;;;;;;;;;5100075;27;89717;-70
2022/09/12 07:18:48;;;;;;;64.50;37.55;;;;;;;;;;5100214;27;90943;-70
2022/09/12 07:21:15;;;;;;;65.65;42.97;;;;;;;;;;5100667;27;91075;-71
2022/09/12 07:23:41;;;;;;;66.95;42.13;;;;;;;;;;5099684;27;89701;-70
2022/09/12 07:26:11;;;;;;;69.63;44.45;;;;;;;;;;5099905;27;88997;-71
2022/09/12 07:28:38;;;;;;;63.75;41.80;;;;;;;;;;5100397;27;90241;-71
2022/09/12 07:31:12;;;;;;;70.50;42.92;;;;;;;;;;5087846;27;89576;-70
2022/09/12 07:33:38;;;;;;;62.92;41.20;;;;;;;;;;5079694;27;90332;-70
2022/09/12 07:36:07;;;;;;;58.92;40.25;;;;;;;;;;5079322;27;88844;-71
2022/09/12 07:38:33;;;;;;;61.53;40.88;;;;;;;;;;5078549;27;90168;-71
2022/09/12 07:41:03;;;;;;;63.10;41.10;;;;;;;;;;5082917;27;90363;-71
2022/09/12 07:43:29;;;;;;;60.58;40.35;;;;;;;;;;5097152;27;90354;-71
2022/09/12 07:45:56;;;;;;;57.10;38.95;;;;;;;;;;5094761;27;89044;-71
2022/09/12 07:48:22;;;;;;;53.80;38.45;;;;;;;;;;5079018;27;89397;-70
2022/09/12 07:50:58;;;;;;;58.75;37.58;;;;;;;;;;5076994;27;89073;-71
2022/09/12 07:53:30;;;;;;;59.22;37.42;;;;;;;;;;5082632;27;89635;-70
2022/09/12 07:55:57;;;;;;;47.78;33.42;;;;;;;;;;5078549;27;89064;-70
2022/09/12 07:58:23;;;;;;;56.55;36.63;;;;;;;;;;5084774;27;89768;-69
2022/09/12 08:00:49;;;;;;;52.83;35.80;;;;;;;;;;5098932;27;89322;-69
2022/09/12 08:03:16;;;;;;;59.30;34.88;;;;;;;;;;5095851;27;89461;-69
2022/09/12 08:05:42;;;;;;;47.08;33.95;;;;;;;;;;5078395;27;90814;-70
2022/09/12 08:08:09;;;;;;;49.75;34.40;;;;;;;;;;5079095;27;90121;-70
2022/09/12 08:10:35;;;;;;;45.75;33.30;;;;;;;;;;5078770;27;89273;-70
2022/09/12 08:13:02;;;;;;;47.92;33.60;;;;;;;;;;5081448;27;91090;-70
2022/09/12 08:15:29;;;;;;;53.85;33.40;;;;;;;;;;5079259;27;89793;-70
2022/09/12 08:17:56;;;;;;;46.45;31.98;;;;;;;;;;5078674;27;90387;-70
2022/09/12 08:20:22;;;;;;;36.22;25.88;;;;;;;;;;5078311;27;90618;-69
2022/09/12 08:22:53;;;;;;;44.42;30.08;;;;;;;;;;5078741;27;89670;-70
2022/09/12 08:25:19;;;;;;;42.85;32.88;;;;;;;;;;5077703;27;90001;-70
2022/09/12 08:27:46;;;;;;;48.53;32.30;;;;;;;;;;5078352;27;89521;-70
2022/09/12 08:30:12;;;;;;;38.28;28.60;;;;;;;;;;5078582;27;88914;-70
2022/09/12 08:32:38;;;;;;;47.60;32.28;;;;;;;;;;5077847;27;89857;-70
2022/09/12 08:35:05;;;;;;;39.05;28.88;;;;;;;;;;5081115;27;90143;-69
2022/09/12 08:37:31;;;;;;;37.65;29.00;;;;;;;;;;5079104;27;90993;-70
2022/09/12 08:39:57;;;;;;;41.10;29.42;;;;;;;;;;5075991;27;89353;-70
2022/09/12 08:42:38;;;;;;;38.42;29.35;;;;;;;;;;5082237;27;89142;-70
2022/09/12 08:45:13;;;;;;;35.60;28.20;;;;;;;;;;5098576;27;90157;-70
2022/09/12 08:47:42;;;;;;;32.00;27.73;;;;;;;;;;5083533;27;90195;-70
2022/09/12 08:50:08;;;;;;;32.67;25.92;;;;;;;;;;5077598;27;88903;-70
2022/09/12 08:52:53;;;;;;;34.35;26.83;;;;;;;;;;5081127;27;89879;-71
2022/09/12 08:55:23;;;;;;;29.27;23.25;;;;;;;;;;5097579;27;89512;-67
2022/09/12 08:57:50;;;;;;;31.23;23.48;;;;;;;;;;5100989;27;89406;-69
2022/09/12 09:00:18;;;;;;;29.90;24.40;;;;;;;;;;5099177;27;90155;-71
2022/09/12 09:02:56;;;;;;;30.05;22.13;;;;;;;;;;5097909;27;90178;-70
2022/09/12 09:05:36;;;;;;;20.17;18.15;;;;;;;;;;5098613;27;90104;-70
2022/09/12 09:08:21;;;;;;;27.10;21.85;;;;;;;;;;5097443;27;90164;-69
2022/09/12 09:10:51;;;;;;;24.23;21.63;;;;;;;;;;5098656;27;89691;-69
2022/09/12 09:16:15;;;;;;;30.42;21.05;;;;;;;;;;5098154;27;89507;-69
2022/09/12 09:18:42;;;;;;;22.48;20.13;;;;;;;;;;5097985;27;88994;-70
2022/09/12 09:21:16;;;;;;;27.75;22.85;;;;;;;;;;5100642;27;89901;-69
2022/09/12 09:23:45;;;;;;;25.00;21.33;;;;;;;;;;5097391;27;90241;-69
2022/09/12 09:26:13;;;;;;;27.13;19.77;;;;;;;;;;5098130;27;89886;-69
2022/09/12 09:28:48;;;;;;;31.65;20.40;;;;;;;;;;5097664;27;89694;-70
2022/09/12 09:31:16;;;;;;;23.27;18.15;;;;;;;;;;5097194;27;89400;-69
2022/09/12 09:33:43;;;;;;;26.40;20.63;;;;;;;;;;5097746;27;90132;-69
2022/09/12 09:36:42;;;;;;;20.35;17.80;;;;;;;;;;5097831;27;90545;-70
2022/09/12 09:39:27;;;;;;;25.23;18.30;;;;;;;;;;5052535;27;89822;-69
2022/09/12 09:42:14;;;;;;;21.63;17.50;;;;;;;;;;5097874;27;89860;-69
2022/09/12 09:44:40;;;;;;;18.77;16.77;;;;;;;;;;5100578;27;90072;-69
2022/09/12 09:47:09;;;;;;;20.38;18.10;;;;;;;;;;5098435;27;90046;-70
2022/09/12 09:49:36;;;;;;;19.63;16.05;;;;;;;;;;5097095;27;89535;-69
2022/09/12 09:52:04;;;;;;;23.45;17.05;;;;;;;;;;5097004;27;88892;-70
2022/09/12 09:54:36;;;;;;;18.02;15.50;;;;;;;;;;5097751;27;89804;-69
2022/09/12 09:57:04;;;;;;;;;;;;;;;;;;5098835;27;90225;-69
2022/09/12 09:59:31;;;;;;;19.05;15.27;;;;;;;;;;5098899;27;119288;-70
2022/09/12 10:02:12;;;;;;;18.33;15.00;;;;;;;;;;5097985;27;89067;-67
2022/09/12 10:04:40;;;;;;;21.90;16.23;;;;;;;;;;5097125;27;90463;-69
2022/09/12 10:07:17;;;;;;;21.83;16.55;;;;;;;;;;5100919;27;88794;-69
2022/09/12 10:10:01;;;;;;;17.75;14.63;;;;;;;;;;5097016;27;89393;-69
2022/09/12 10:12:28;;;;;;;16.55;14.48;;;;;;;;;;5096719;27;89029;-69
2022/09/12 10:15:01;;;;;;;16.45;14.75;;;;;;;;;;5097434;27;91053;-69
2022/09/12 10:17:28;;;;;;;16.92;15.10;;;;;;;;;;5097997;27;90379;-70
2022/09/12 10:19:59;;;;;;;25.85;17.35;;;;;;;;;;5097043;27;89398;-70
2022/09/12 10:22:46;;;;;;;17.13;14.57;;;;;;;;;;5096857;27;89833;-70
2022/09/12 10:25:15;;;;;;;16.95;14.43;;;;;;;;;;5082780;27;90438;-70
2022/09/12 10:27:41;;;;;;;27.02;14.23;;;;;;;;;;5083475;27;89013;-70
2022/09/12 10:30:13;;;;;;;23.55;14.80;;;;;;;;;;5087371;27;89194;-70
2022/09/12 10:32:41;;;;;;;16.65;15.00;;;;;;;;;;5101142;27;88893;-69
2022/09/12 10:35:18;;;;;;;15.82;14.30;;;;;;;;;;5101640;27;90784;-70
2022/09/12 10:38:04;;;;;;;18.23;15.35;;;;;;;;;;5100668;27;89331;-70
2022/09/12 10:40:34;;;;;;;14.45;12.95;;;;;;;;;;5094644;27;89559;-70
2022/09/12 10:43:04;;;;;;;13.65;12.13;;;;;;;;;;5088254;27;92724;-69
2022/09/12 10:45:34;;;;;;;14.85;13.05;;;;;;;;;;5089808;27;89204;-70
2022/09/12 10:48:03;;;;;;;13.30;11.98;;;;;;;;;;5082294;27;89796;-69
2022/09/12 10:50:40;;;;;;;14.52;11.75;;;;;;;;;;5082949;27;91042;-70
2022/09/12 10:53:14;;;;;;;14.07;12.57;;;;;;;;;;5080718;27;89805;-69
2022/09/12 10:55:48;;;;;;;13.10;11.80;;;;;;;;;;5099339;27;90826;-67
2022/09/12 10:58:39;;;;;;;14.73;12.20;;;;;;;;;;5088059;27;90281;-68
2022/09/12 11:01:17;;;;;;;12.55;11.35;;;;;;;;;;5078756;27;88893;-68
2022/09/12 11:03:53;;;;;;;30.90;13.90;;;;;;;;;;5079531;27;90085;-68
2022/09/12 11:06:22;;;;;;;13.00;10.25;;;;;;;;;;5079701;27;89451;-68
2022/09/12 11:08:54;;;;;;;14.18;10.57;;;;;;;;;;5079221;27;89556;-68
2022/09/12 11:11:39;;;;;;;11.35;10.35;;;;;;;;;;5080581;27;90955;-68
2022/09/12 11:14:11;;;;;;;13.50;10.27;;;;;;;;;;5083332;27;90318;-68
2022/09/12 11:16:38;;;;;;;;;;;;;;;;;;5079593;27;90239;-68
2022/09/12 11:19:26;;;;;;;8.60;7.90;;;;;;;;;;5080475;27;118500;-68
2022/09/12 11:22:11;;;;;;;9.75;8.00;;;;;;;;;;5075719;27;93325;-68
2022/09/12 11:24:46;;;;;;;9.80;6.85;;;;;;;;;;5077335;27;91620;-68
2022/09/12 11:27:37;;;;;;;6.88;6.20;;;;;;;;;;5077805;27;93727;-68
2022/09/12 11:30:11;;;;;;;6.63;6.10;;;;;;;;;;5083076;27;94464;-68
2022/09/12 11:33:00;;;;;;;10.32;5.25;;;;;;;;;;5097023;27;94788;-68
2022/09/12 11:35:28;;;;;;;5.45;4.40;;;;;;;;;;5097747;27;95289;-68
2022/09/12 11:38:00;;;;;;;5.30;4.88;;;;;;;;;;5100367;27;94084;-68
2022/09/12 11:40:30;;;;;;;5.97;5.38;;;;;;;;;;5091734;27;93962;-68
2022/09/12 11:42:59;;;;;;;5.97;5.47;;;;;;;;;;5096159;27;93314;-68
2022/09/12 11:45:34;;;;;;;5.47;4.88;;;;;;;;;;5098346;27;92440;-68
2022/09/12 11:48:05;;;;;;;5.10;4.72;;;;;;;;;;5098109;27;93898;-68
2022/09/12 11:50:31;;;;;;;11.37;4.73;;;;;;;;;;5096655;27;92489;-68
2022/09/12 11:53:20;;;;;;;6.13;4.40;;;;;;;;;;5096970;27;92362;-68
2022/09/12 11:55:53;;;;;;;5.28;4.70;;;;;;;;;;5087046;27;93227;-68
2022/09/12 11:58:22;;;;;;;4.75;4.35;;;;;;;;;;5095763;27;97535;-68
2022/09/12 12:00:53;;;;;;;4.38;3.97;;;;;;;;;;5100756;27;92395;-68
2022/09/12 12:03:23;;;;;;;7.43;3.67;;;;;;;;;;5097914;27;94725;-68
2022/09/12 12:05:54;;;;;;;5.32;4.15;;;;;;;;;;5095947;27;92706;-68
2022/09/12 12:08:22;;;;;;;6.50;3.83;;;;;;;;;;5097982;27;92955;-68
2022/09/12 12:10:58;;;;;;;6.05;4.65;;;;;;;;;;5095678;27;93240;-67
2022/09/12 12:13:32;;;;;;;5.82;3.40;;;;;;;;;;5096840;27;92394;-68
2022/09/12 12:16:04;;;;;;;7.40;4.22;;;;;;;;;;5097333;27;92749;-67
2022/09/12 12:18:31;;;;;;;5.50;4.22;;;;;;;;;;5096296;27;93592;-67
2022/09/12 12:21:33;;;;;;;13.23;3.70;;;;;;;;;;5096671;27;92443;-68
2022/09/12 12:24:10;;;;;;;6.80;4.00;;;;;;;;;;5013480;28;94882;-68
2022/09/12 12:26:39;;;;;;;4.63;3.22;;;;;;;;;;5073509;27;92376;-68
2022/09/12 12:29:10;;;;;;;5.50;3.90;;;;;;;;;;5076279;27;93419;-68
2022/09/12 12:31:55;;;;;;;4.82;4.40;;;;;;;;;;5075885;27;93074;-67
2022/09/12 12:34:26;;;;;;;8.52;3.47;;;;;;;;;;5076996;27;92415;-68
2022/09/12 12:36:52;;;;;;;3.53;3.23;;;;;;;;;;5076175;27;92885;-67
2022/09/12 12:39:30;;;;;;;9.23;3.17;;;;;;;;;;5076224;27;94319;-67
2022/09/12 12:42:00;;;;;;;4.07;3.70;;;;;;;;;;5077289;27;91537;-67
2022/09/12 12:44:46;;;;;;;4.15;3.47;;;;;;;;;;5079703;27;92998;-67
2022/09/12 12:47:26;;;;;;;5.90;3.05;;;;;;;;;;5075528;27;92506;-67
2022/09/12 12:49:58;;;;;;;4.00;2.97;;;;;;;;;;5073567;27;94847;-67
2022/09/12 12:52:27;;;;;;;5.65;3.85;;;;;;;;;;5076010;27;95041;-67
2022/09/12 12:54:55;;;;;;;3.13;2.90;;;;;;;;;;5074626;27;92498;-67
2022/09/12 12:57:25;;;;;;;3.97;3.60;;;;;;;;;;5076733;27;93937;-68
2022/09/12 12:59:54;;;;;;;3.83;3.53;;;;;;;;;;5076200;27;94145;-67
2022/09/12 13:02:27;;;;;;;3.92;3.60;;;;;;;;;;5075652;27;92349;-67
2022/09/12 13:04:54;;;;;;;5.32;2.97;;;;;;;;;;5076204;27;93981;-68
2022/09/12 13:07:24;;;;;;;4.25;2.90;;;;;;;;;;5079094;27;93394;-67
2022/09/12 13:09:51;;;;;;;6.93;3.15;;;;;;;;;;5076530;27;92985;-69
2022/09/12 13:12:18;;;;;;;3.30;3.00;;;;;;;;;;5074804;27;93775;-69
2022/09/12 13:14:48;;;;;;;4.05;3.67;;;;;;;;;;5072845;27;94857;-69
2022/09/12 13:17:18;;;;;;;3.85;3.50;;;;;;;;;;5076088;27;96379;-69
2022/09/12 13:19:44;;;;;;;6.38;3.22;;;;;;;;;;5075564;27;94301;-69
2022/09/12 13:22:11;;;;;;;3.45;3.20;;;;;;;;;;5076425;27;93609;-69
2022/09/12 13:24:53;;;;;;;5.38;2.80;;;;;;;;;;5095511;27;93063;-67
2022/09/12 13:27:24;;;;;;;3.00;2.70;;;;;;;;;;5079779;27;94243;-69
2022/09/12 13:30:13;;;;;;;3.17;2.87;;;;;;;;;;5077335;27;92385;-69
2022/09/12 13:32:40;;;;;;;4.75;3.25;;;;;;;;;;5080317;27;93342;-69
2022/09/12 13:35:12;;;;;;;5.85;3.75;;;;;;;;;;5096728;27;92455;-69
2022/09/12 13:37:39;;;;;;;;;;;;;;;;;;5078968;27;93966;-69
2022/09/12 13:40:14;;;;;;;6.88;3.10;;;;;;;;;;5083692;27;126081;-69
2022/09/12 13:42:43;;;;;;;4.07;3.78;;;;;;;;;;5092016;27;92491;-69
2022/09/12 13:45:18;;;;;;;3.75;3.38;;;;;;;;;;5077337;27;93180;-69
2022/09/12 13:47:45;;;;;;;4.13;3.10;;;;;;;;;;5075327;27;94250;-69
2022/09/12 13:50:17;;;;;;;3.00;2.80;;;;;;;;;;5079073;27;92576;-69
2022/09/12 13:52:45;;;;;;;3.78;3.15;;;;;;;;;;5085297;27;92925;-69
2022/09/12 13:55:26;;;;;;;3.45;3.15;;;;;;;;;;5075610;27;92737;-70
2022/09/12 13:57:57;;;;;;;3.55;3.00;;;;;;;;;;5074003;27;93041;-70
2022/09/12 14:00:23;;;;;;;3.20;3.00;;;;;;;;;;5086032;27;93148;-69
2022/09/12 14:05:06;;;;;;;2.97;2.78;;;;;;;;;;5081451;27;93195;-70
2022/09/12 14:05:37;;;;;;;2.88;2.63;;;;;;;;;;5083979;27;94738;-70
2022/09/12 14:08:05;;;;;;;3.35;2.67;;;;;;;;;;5083594;27;94652;-70
2022/09/12 14:10:34;;;;;;;2.55;2.38;;;;;;;;;;5073752;27;92471;-69
2022/09/12 14:13:03;;;;;;;3.17;2.88;;;;;;;;;;5079501;27;92982;-67
2022/09/12 14:15:34;;;;;;;3.03;2.83;;;;;;;;;;5084186;27;93354;-67
2022/09/12 14:18:02;;;;;;;3.63;3.33;;;;;;;;;;5088017;27;95180;-67
2022/09/12 14:20:32;;;;;;;2.97;2.67;;;;;;;;;;5075816;27;93427;-68
2022/09/12 14:23:00;;;;;;;6.18;2.95;;;;;;;;;;5077356;27;92897;-68
2022/09/12 14:25:30;;;;;;;2.90;2.70;;;;;;;;;;5077714;27;92453;-68
2022/09/12 14:27:57;;;;;;;3.15;2.95;;;;;;;;;;5084177;27;93392;-67
2022/09/12 14:30:23;;;;;;;2.88;2.67;;;;;;;;;;5073645;27;94851;-68
2022/09/12 14:33:08;;;;;;;6.28;2.60;;;;;;;;;;5073133;27;96364;-68
2022/09/12 14:35:39;;;;;;;3.40;2.88;;;;;;;;;;5086021;27;93104;-68
2022/09/12 14:38:14;;;;;;;6.65;2.58;;;;;;;;;;5078085;27;92422;-68
2022/09/12 14:40:47;;;;;;;6.03;2.90;;;;;;;;;;5072889;27;93646;-68
2022/09/12 14:43:33;;;;;;;4.07;2.75;;;;;;;;;;5075613;27;93409;-68
2022/09/12 14:46:02;;;;;;;2.88;2.63;;;;;;;;;;5078500;27;92842;-68